Time;durP1;ratioP1;P1;durP2;ratioP2;P2;SDS_P1;SDS_P2;PMS_P1;PMS_P2;Temp;Humidity;BMP_temperature;BMP_pressure;BME280_temperature;BME280_humidity;BME280_pressure;Samples;Min_cycle;Max_cycle;Signal;HPM_P1;HPM_P2
2021/12/13 00:02:02;;;;;;;;;;;11.40;99.90;;;;;;5073539;28;19915;-79
2021/12/13 00:04:34;;;;;;;;;;;11.40;99.90;;;;;;5055344;28;20291;-79
2021/12/13 00:07:08;;;;;;;;;;;11.40;99.90;;;;;;5073380;28;19909;-78
2021/12/13 00:09:38;;;;;;;;;;;11.40;99.90;;;;;;5073563;28;19909;-79
2021/12/13 00:12:04;;;;;;;;;;;11.40;99.90;;;;;;5073265;28;19927;-79
2021/12/13 00:14:33;;;;;;;;;;;11.30;99.90;;;;;;5073390;28;19913;-79
2021/12/13 00:17:06;;;;;;;;;;;11.30;99.90;;;;;;5073162;28;19908;-79
2021/12/13 00:19:34;;;;;;;;;;;11.30;99.90;;;;;;5073168;28;20263;-79
2021/12/13 00:22:05;;;;;;;;;;;11.30;99.90;;;;;;5073731;28;20371;-79
2021/12/13 00:24:33;;;;;;;;;;;11.30;99.90;;;;;;5073458;28;19909;-78
2021/12/13 00:27:15;;;;;;;;;;;11.30;99.90;;;;;;5073133;28;20341;-78
2021/12/13 00:29:44;;;;;;;;;;;11.30;99.90;;;;;;5073078;28;19908;-78
2021/12/13 00:32:22;;;;;;;;;;;11.30;99.90;;;;;;5073119;28;19909;-79
2021/12/13 00:34:50;;;;;;;;;;;11.20;99.90;;;;;;5073443;28;19916;-79
2021/12/13 00:37:45;;;;;;;;;;;11.20;99.90;;;;;;5073633;28;19958;-79
2021/12/13 00:40:12;;;;;;;;;;;11.20;99.90;;;;;;5059582;28;19999;-78
2021/12/13 00:42:40;;;;;;;;;;;11.20;99.90;;;;;;5072945;28;19913;-78
2021/12/13 00:45:08;;;;;;;;;;;11.20;99.90;;;;;;5073394;28;19909;-78
2021/12/13 00:47:35;;;;;;;;;;;11.20;99.90;;;;;;5072944;28;19908;-79
2021/12/13 00:50:21;;;;;;;;;;;11.10;99.90;;;;;;5072886;28;19908;-78
2021/12/13 00:52:48;;;;;;;;;;;11.10;99.90;;;;;;5075592;28;20369;-79
2021/12/13 00:55:16;;;;;;;;;;;11.10;99.90;;;;;;5076714;28;19909;-78
2021/12/13 00:57:44;;;;;;;;;;;11.10;99.90;;;;;;5058359;28;19962;-78
2021/12/13 01:00:15;;;;;;;;;;;11.10;99.90;;;;;;5076319;28;20379;-79
2021/12/13 01:02:40;;;;;;;;;;;11.10;99.90;;;;;;5076256;28;19912;-79
2021/12/13 01:05:06;;;;;;;;;;;11.00;99.90;;;;;;5058269;28;20064;-77
2021/12/13 01:07:50;;;;;;;;;;;11.00;99.90;;;;;;5076202;28;20066;-79
2021/12/13 01:10:34;;;;;;;;;;;11.00;99.90;;;;;;5058155;28;20284;-78
2021/12/13 01:13:00;;;;;;;;;;;10.90;99.90;;;;;;5075641;28;19967;-79
2021/12/13 01:15:34;;;;;;;;;;;10.90;99.90;;;;;;5076197;28;19944;-78
2021/12/13 01:21:10;;;;;;;;;;;10.90;99.90;;;;;;5075986;28;19915;-78
2021/12/13 01:23:46;;;;;;;;;;;10.80;99.90;;;;;;5076018;28;20369;-78
2021/12/13 01:26:37;;;;;;;;;;;10.80;99.90;;;;;;5075955;28;19912;-78
2021/12/13 01:29:01;;;;;;;;;;;10.80;99.90;;;;;;5075138;28;20327;-79
2021/12/13 01:31:29;;;;;;;;;;;10.80;99.90;;;;;;5075733;28;19916;-79
2021/12/13 01:33:55;;;;;;;;;;;10.90;99.90;;;;;;5075882;28;19962;-78
2021/12/13 01:36:25;;;;;;;;;;;11.00;99.90;;;;;;5075666;28;19958;-78
2021/12/13 01:38:53;;;;;;;;;;;11.00;99.90;;;;;;5075538;28;19996;-78
2021/12/13 01:41:24;;;;;;;;;;;11.00;99.90;;;;;;5075517;28;19909;-79
2021/12/13 01:43:52;;;;;;;;;;;10.90;99.90;;;;;;5075514;28;20011;-78
2021/12/13 01:46:19;;;;;;;;;;;10.90;99.90;;;;;;5075448;28;19913;-79
2021/12/13 01:48:46;;;;;;;;;;;10.90;99.90;;;;;;5075392;28;19912;-79
2021/12/13 01:51:13;;;;;;;;;;;10.90;99.90;;;;;;5075664;28;19967;-79
2021/12/13 01:53:46;;;;;;;;;;;10.90;99.90;;;;;;5075262;28;20375;-78
2021/12/13 01:56:38;;;;;;;;;;;11.00;99.90;;;;;;5075237;28;20283;-79
2021/12/13 01:59:16;;;;;;;;;;;10.90;99.90;;;;;;5060581;28;19912;-79
2021/12/13 02:01:43;;;;;;;;;;;10.90;99.90;;;;;;5074786;28;19916;-78
2021/12/13 02:04:10;;;;;;;;;;;10.80;99.90;;;;;;5075060;28;19909;-78
2021/12/13 02:06:42;;;;;;;;;;;10.80;99.90;;;;;;5075042;28;20332;-79
2021/12/13 02:09:21;;;;;;;;;;;10.80;99.90;;;;;;5075144;28;19999;-79
2021/12/13 02:11:49;;;;;;;;;;;10.80;99.90;;;;;;5075195;28;20456;-78
2021/12/13 02:14:17;;;;;;;;;;;10.80;99.90;;;;;;5074959;28;20011;-79
2021/12/13 02:17:00;;;;;;;;;;;10.80;99.90;;;;;;5074860;28;19908;-79
2021/12/13 02:19:37;;;;;;;;;;;10.80;99.90;;;;;;5074977;28;19915;-79
2021/12/13 02:22:05;;;;;;;;;;;10.80;99.90;;;;;;5074658;28;19915;-78
2021/12/13 02:24:31;;;;;;;;;;;10.80;99.90;;;;;;5074652;28;19947;-78
2021/12/13 02:26:58;;;;;;;;;;;10.80;99.90;;;;;;5056703;28;20100;-79
2021/12/13 02:29:34;;;;;;;;;;;10.80;99.90;;;;;;5074563;28;19908;-77
2021/12/13 02:32:01;;;;;;;;;;;10.80;99.90;;;;;;5074756;28;19909;-79
2021/12/13 02:34:29;;;;;;;;;;;10.80;99.90;;;;;;5074464;28;19912;-80
2021/12/13 02:36:56;;;;;;;;;;;10.80;99.90;;;;;;5074428;28;19915;-79
2021/12/13 02:39:28;;;;;;;;;;;10.80;99.90;;;;;;5074305;28;19931;-79
2021/12/13 02:41:54;;;;;;;;;;;10.80;99.90;;;;;;5074338;28;19908;-79
2021/12/13 02:44:23;;;;;;;;;;;10.70;99.90;;;;;;5074411;28;19908;-80
2021/12/13 02:46:49;;;;;;;;;;;10.70;99.90;;;;;;5074197;28;19955;-79
2021/12/13 02:49:16;;;;;;;;;;;10.70;99.90;;;;;;5074393;28;19985;-78
2021/12/13 02:51:43;;;;;;;;;;;10.70;99.90;;;;;;5074380;28;19998;-79
2021/12/13 02:54:26;;;;;;;;;;;10.70;99.90;;;;;;5074080;28;19913;-78
2021/12/13 02:56:53;;;;;;;;;;;10.70;99.90;;;;;;5074088;28;20379;-79
2021/12/13 02:59:21;;;;;;;;;;;10.80;99.90;;;;;;5074397;28;19995;-79
2021/12/13 03:01:46;;;;;;;;;;;10.70;99.90;;;;;;5074317;28;19963;-79
2021/12/13 03:04:14;;;;;;;;;;;10.70;99.90;;;;;;5056076;28;20319;-78
2021/12/13 03:06:54;;;;;;;;;;;10.80;99.90;;;;;;5074110;28;20365;-79
2021/12/13 03:09:21;;;;;;;;;;;10.80;99.90;;;;;;5071142;28;20331;-78
2021/12/13 03:11:48;;;;;;;;;;;10.80;99.90;;;;;;5074126;28;20321;-78
2021/12/13 03:14:19;;;;;;;;;;;10.80;99.90;;;;;;5073033;28;19912;-79
2021/12/13 03:16:47;;;;;;;;;;;10.80;99.90;;;;;;5073824;28;19954;-77
2021/12/13 03:19:25;;;;;;;;;;;10.80;99.90;;;;;;5073910;28;19913;-78
2021/12/13 03:22:03;;;;;;;;;;;10.70;99.90;;;;;;5073870;28;19915;-79
2021/12/13 03:24:35;;;;;;;;;;;10.70;99.90;;;;;;5055791;28;19908;-79
2021/12/13 03:27:12;;;;;;;;;;;10.70;99.90;;;;;;5073805;28;19908;-79
2021/12/13 03:29:47;;;;;;;;;;;10.70;99.90;;;;;;5055706;28;19912;-78
2021/12/13 03:32:14;;;;;;;;;;;10.70;99.90;;;;;;5073639;28;19909;-79
2021/12/13 03:34:43;;;;;;;;;;;10.70;99.90;;;;;;5073480;28;19916;-79
2021/12/13 03:37:11;;;;;;;;;;;10.70;99.90;;;;;;5055608;28;20291;-79
2021/12/13 03:39:42;;;;;;;;;;;10.80;99.90;;;;;;5073644;28;19908;-79
2021/12/13 03:42:11;;;;;;;;;;;10.80;99.90;;;;;;5073574;28;19919;-79
2021/12/13 03:44:40;;;;;;;;;;;10.70;99.90;;;;;;5073836;28;19909;-78
2021/12/13 03:47:11;;;;;;;;;;;10.70;99.90;;;;;;5073607;28;19962;-78
2021/12/13 03:49:40;;;;;;;;;;;10.60;99.90;;;;;;5073697;28;19908;-79
2021/12/13 03:52:07;;;;;;;;;;;10.60;99.90;;;;;;5073954;28;19915;-78
2021/12/13 03:54:36;;;;;;;;;;;10.70;99.90;;;;;;5073391;28;19935;-78
2021/12/13 03:57:02;;;;;;;;;;;10.70;99.90;;;;;;5073417;28;19909;-79
2021/12/13 03:59:28;;;;;;;;;;;10.70;99.90;;;;;;5073403;28;20414;-80
2021/12/13 04:01:59;;;;;;;;;;;10.70;99.90;;;;;;5073385;28;20258;-78
2021/12/13 04:04:30;;;;;;;;;;;10.70;99.90;;;;;;5073322;28;19908;-78
2021/12/13 04:07:05;;;;;;;;;;;10.70;99.90;;;;;;5073349;28;20284;-79
2021/12/13 04:09:31;;;;;;;;;;;10.70;99.90;;;;;;5073925;28;19931;-78
2021/12/13 04:11:59;;;;;;;;;;;10.70;99.90;;;;;;5073063;28;20372;-79
2021/12/13 04:14:29;;;;;;;;;;;10.70;99.90;;;;;;5073396;28;19912;-79
2021/12/13 04:17:05;;;;;;;;;;;10.70;99.90;;;;;;5055978;28;20289;-79
2021/12/13 04:20:04;;;;;;;;;;;10.70;99.90;;;;;;5074562;28;19908;-78
2021/12/13 04:22:31;;;;;;;;;;;10.70;99.90;;;;;;5040346;28;19948;-79
2021/12/13 04:24:59;;;;;;;;;;;10.70;99.90;;;;;;5056854;28;19932;-78
2021/12/13 04:27:34;;;;;;;;;;;10.80;99.90;;;;;;5059654;28;20341;-79
2021/12/13 04:30:07;;;;;;;;;;;10.70;99.90;;;;;;5078081;28;20000;-80
2021/12/13 04:32:34;;;;;;;;;;;10.60;99.90;;;;;;5078454;28;20316;-79
2021/12/13 04:35:03;;;;;;;;;;;10.70;99.90;;;;;;5077933;28;19927;-79
2021/12/13 04:37:32;;;;;;;;;;;10.70;99.90;;;;;;5077957;28;19981;-78
2021/12/13 04:40:00;;;;;;;;;;;10.70;99.90;;;;;;5077774;28;19912;-79
2021/12/13 04:42:28;;;;;;;;;;;10.70;99.90;;;;;;5077473;28;19915;-80
2021/12/13 04:45:03;;;;;;;;;;;10.70;99.90;;;;;;5077715;28;20361;-78
2021/12/13 04:47:35;;;;;;;;;;;10.70;99.90;;;;;;5059528;28;19909;-78
2021/12/13 04:50:10;;;;;;;;;;;10.70;99.90;;;;;;5059518;28;19952;-79
2021/12/13 04:52:36;;;;;;;;;;;10.70;99.90;;;;;;5077379;28;19909;-78
2021/12/13 04:55:04;;;;;;;;;;;10.70;99.90;;;;;;5077553;28;19916;-79
2021/12/13 04:57:30;;;;;;;;;;;10.70;99.90;;;;;;5077586;28;19908;-78
2021/12/13 05:00:00;;;;;;;;;;;10.70;99.90;;;;;;5077334;28;19962;-78
2021/12/13 05:02:27;;;;;;;;;;;10.70;99.90;;;;;;5077597;28;19908;-78
2021/12/13 05:04:57;;;;;;;;;;;10.70;99.90;;;;;;5077298;28;19909;-78
2021/12/13 05:07:24;;;;;;;;;;;10.70;99.90;;;;;;5077277;28;19915;-78
2021/12/13 05:09:52;;;;;;;;;;;10.60;99.90;;;;;;5077089;28;19921;-79
2021/12/13 05:12:19;;;;;;;;;;;10.50;99.90;;;;;;5077062;28;19936;-78
2021/12/13 05:14:51;;;;;;;;;;;10.50;99.90;;;;;;5076587;28;20364;-79
2021/12/13 05:17:19;;;;;;;;;;;10.50;99.90;;;;;;5076687;28;20369;-78
2021/12/13 05:19:53;;;;;;;;;;;10.50;99.90;;;;;;5076660;28;19908;-79
2021/12/13 05:22:20;;;;;;;;;;;10.50;99.90;;;;;;5076871;28;20288;-79
2021/12/13 05:24:54;;;;;;;;;;;10.50;99.90;;;;;;5058643;28;19909;-77
2021/12/13 05:27:30;;;;;;;;;;;10.50;99.90;;;;;;5076417;28;19909;-79
2021/12/13 05:30:05;;;;;;;;;;;10.50;99.90;;;;;;5076878;28;20285;-78
2021/12/13 05:32:33;;;;;;;;;;;10.40;99.90;;;;;;5076479;28;20360;-79
2021/12/13 05:35:02;;;;;;;;;;;10.40;99.90;;;;;;5058538;28;20347;-78
2021/12/13 05:37:38;;;;;;;;;;;10.40;99.90;;;;;;5075257;28;20373;-78
2021/12/13 05:40:06;;;;;;;;;;;10.30;99.90;;;;;;5076237;28;19909;-78
2021/12/13 05:42:43;;;;;;;;;;;10.40;99.90;;;;;;5076141;28;20378;-78
2021/12/13 05:45:10;;;;;;;;;;;10.40;99.90;;;;;;5076272;28;19908;-79
2021/12/13 05:47:36;;;;;;;;;;;10.40;99.90;;;;;;5076129;28;20284;-78
2021/12/13 05:50:03;;;;;;;;;;;10.30;99.90;;;;;;5075987;28;19912;-78
2021/12/13 05:52:33;;;;;;;;;;;10.20;99.90;;;;;;5076000;28;19936;-78
2021/12/13 05:55:05;;;;;;;;;;;10.20;99.90;;;;;;5075981;28;20334;-79
2021/12/13 05:57:34;;;;;;;;;;;10.20;99.90;;;;;;5057713;28;19909;-77
2021/12/13 06:00:29;;;;;;;;;;;10.20;99.90;;;;;;5075756;28;19909;-79
2021/12/13 06:03:07;;;;;;;;;;;10.20;99.90;;;;;;5062090;28;19909;-78
2021/12/13 06:05:39;;;;;;;;;;;10.20;99.90;;;;;;5075899;28;20003;-78
2021/12/13 06:08:07;;;;;;;;;;;10.10;99.90;;;;;;5075678;28;20300;-79
2021/12/13 06:10:41;;;;;;;;;;;10.10;99.90;;;;;;5075543;28;19958;-78
2021/12/13 06:13:08;;;;;;;;;;;10.20;99.90;;;;;;5075298;28;19927;-79
2021/12/13 06:15:41;;;;;;;;;;;10.10;99.90;;;;;;5075584;28;19909;-78
2021/12/13 06:18:12;;;;;;;;;;;10.10;99.90;;;;;;5075322;28;19912;-77
2021/12/13 06:20:44;;;;;;;;;;;10.10;99.90;;;;;;5057503;28;19912;-78
2021/12/13 06:23:16;;;;;;;;;;;10.20;99.90;;;;;;5057573;28;20376;-78
2021/12/13 06:25:43;;;;;;;;;;;10.10;99.90;;;;;;5075494;28;19916;-78
2021/12/13 06:28:17;;;;;;;;;;;10.10;99.90;;;;;;5075484;28;20383;-79
2021/12/13 06:30:50;;;;;;;;;;;10.10;99.90;;;;;;5075328;28;20368;-79
2021/12/13 06:33:15;;;;;;;;;;;10.10;99.90;;;;;;5075026;28;19913;-79
2021/12/13 06:35:53;;;;;;;;;;;10.10;99.90;;;;;;5075046;28;19957;-78
2021/12/13 06:38:18;;;;;;;;;;;10.10;99.90;;;;;;5056924;28;19997;-79
2021/12/13 06:40:59;;;;;;;;;;;10.10;99.90;;;;;;5074790;28;19912;-78
2021/12/13 06:43:28;;;;;;;;;;;10.00;99.90;;;;;;5056749;28;19908;-78
2021/12/13 06:45:54;;;;;;;;;;;9.90;99.90;;;;;;5074910;28;19991;-78
2021/12/13 06:48:31;;;;;;;;;;;9.90;99.90;;;;;;5074750;28;19944;-78
2021/12/13 06:50:57;;;;;;;;;;;9.80;99.90;;;;;;5074764;28;19916;-78
2021/12/13 06:53:22;;;;;;;;;;;9.70;99.90;;;;;;5074547;28;20285;-78
2021/12/13 06:55:48;;;;;;;;;;;9.70;99.90;;;;;;5056645;28;19913;-79
2021/12/13 06:58:16;;;;;;;;;;;9.60;99.90;;;;;;5074475;28;20007;-77
2021/12/13 07:00:42;;;;;;;;;;;9.70;99.90;;;;;;5074343;28;19916;-79
2021/12/13 07:03:09;;;;;;;;;;;9.70;99.90;;;;;;5074504;28;19908;-78
2021/12/13 07:05:44;;;;;;;;;;;9.70;99.90;;;;;;5056411;28;19915;-78
2021/12/13 07:08:11;;;;;;;;;;;9.70;99.90;;;;;;5074256;28;19915;-77
2021/12/13 07:10:40;;;;;;;;;;;9.70;99.90;;;;;;5074217;28;19908;-78
2021/12/13 07:13:29;;;;;;;;;;;9.70;99.90;;;;;;5055885;28;20365;-79
2021/12/13 07:15:55;;;;;;;;;;;9.70;99.90;;;;;;5074446;28;20349;-79
2021/12/13 07:18:29;;;;;;;;;;;9.60;99.90;;;;;;5074957;28;20004;-79
2021/12/13 07:20:58;;;;;;;;;;;9.50;99.90;;;;;;5074419;28;20459;-78
2021/12/13 07:23:24;;;;;;;;;;;9.50;99.90;;;;;;5074421;28;19934;-78
2021/12/13 07:25:51;;;;;;;;;;;9.50;99.90;;;;;;5074199;28;19999;-79
2021/12/13 07:28:28;;;;;;;;;;;9.50;99.90;;;;;;5074180;28;20434;-79
2021/12/13 07:30:54;;;;;;;;;;;9.50;99.90;;;;;;5074212;28;19923;-79
2021/12/13 07:33:31;;;;;;;;;;;9.50;99.90;;;;;;5073638;28;19912;-78
2021/12/13 07:35:57;;;;;;;;;;;9.50;99.90;;;;;;5074216;28;19916;-79
2021/12/13 07:38:26;;;;;;;;;;;9.50;99.90;;;;;;5055871;28;19979;-79
2021/12/13 07:40:54;;;;;;;;;;;9.50;99.90;;;;;;5073977;28;19909;-78
2021/12/13 07:43:26;;;;;;;;;;;9.50;99.90;;;;;;5073936;28;19908;-79
2021/12/13 07:46:09;;;;;;;;;;;9.50;99.90;;;;;;5073990;28;20373;-78
2021/12/13 07:48:51;;;;;;;;;;;9.50;99.90;;;;;;5055815;28;19908;-78
2021/12/13 07:51:19;;;;;;;;;;;9.40;99.90;;;;;;5073938;28;20280;-78
2021/12/13 07:53:53;;;;;;;;;;;9.50;99.90;;;;;;5073716;28;19912;-79
2021/12/13 07:56:20;;;;;;;;;;;9.40;99.90;;;;;;5055820;28;20000;-79
2021/12/13 07:58:48;;;;;;;;;;;9.40;99.90;;;;;;5073619;28;19974;-79
2021/12/13 08:01:13;;;;;;;;;;;9.40;99.90;;;;;;5076593;28;19913;-80
2021/12/13 08:03:43;;;;;;;;;;;9.50;99.90;;;;;;5077611;28;19908;-79
2021/12/13 08:06:09;;;;;;;;;;;9.50;99.90;;;;;;5059603;28;19908;-79
2021/12/13 08:08:44;;;;;;;;;;;9.60;99.90;;;;;;5059366;28;19987;-79
2021/12/13 08:11:09;;;;;;;;;;;9.60;99.90;;;;;;5077378;28;19909;-79
2021/12/13 08:13:35;;;;;;;;;;;9.60;99.90;;;;;;5077487;28;19949;-79
2021/12/13 08:16:05;;;;;;;;;;;9.50;99.90;;;;;;5077223;28;20391;-80
2021/12/13 08:18:35;;;;;;;;;;;9.40;99.90;;;;;;5077683;28;19957;-78
2021/12/13 08:21:04;;;;;;;;;;;9.40;99.90;;;;;;5077099;28;19909;-78
2021/12/13 08:23:35;;;;;;;;;;;9.40;99.90;;;;;;5077164;28;19970;-80
2021/12/13 08:26:03;;;;;;;;;;;9.40;99.90;;;;;;5077286;28;19915;-77
2021/12/13 08:28:40;;;;;;;;;;;9.40;99.90;;;;;;5077197;28;20018;-79
2021/12/13 08:31:07;;;;;;;;;;;9.50;99.90;;;;;;5059073;28;19952;-79
2021/12/13 08:33:38;;;;;;;;;;;9.50;99.90;;;;;;5077101;28;20324;-79
2021/12/13 08:36:10;;;;;;;;;;;9.50;99.90;;;;;;5076933;28;19992;-78
2021/12/13 08:38:44;;;;;;;;;;;9.40;99.90;;;;;;5076837;28;19934;-79
2021/12/13 08:41:25;;;;;;;;;;;9.40;99.90;;;;;;5058918;28;19908;-78
2021/12/13 08:43:54;;;;;;;;;;;9.50;99.90;;;;;;5076889;28;20357;-78
2021/12/13 08:46:26;;;;;;;;;;;9.40;99.90;;;;;;5076586;28;20384;-78
2021/12/13 08:48:51;;;;;;;;;;;9.40;99.90;;;;;;5076616;28;19908;-79
2021/12/13 08:51:22;;;;;;;;;;;9.40;99.90;;;;;;5076587;28;20273;-78
2021/12/13 08:54:00;;;;;;;;;;;9.50;99.90;;;;;;5076528;28;19924;-78
2021/12/13 08:56:26;;;;;;;;;;;9.50;99.90;;;;;;5077013;28;19909;-78
2021/12/13 08:58:54;;;;;;;;;;;9.50;99.90;;;;;;5076519;28;19908;-79
2021/12/13 09:01:20;;;;;;;;;;;9.50;99.90;;;;;;5076422;28;19915;-79
2021/12/13 09:03:50;;;;;;;;;;;9.60;99.90;;;;;;5076381;28;19987;-78
2021/12/13 09:06:16;;;;;;;;;;;9.60;99.90;;;;;;5076344;28;20361;-79
2021/12/13 09:08:41;;;;;;;;;;;9.50;99.90;;;;;;5076370;28;19916;-80
2021/12/13 09:11:17;;;;;;;;;;;9.50;99.90;;;;;;5057492;28;19970;-79
2021/12/13 09:14:11;;;;;;;;;;;9.50;99.90;;;;;;5076082;28;19927;-77
2021/12/13 09:16:46;;;;;;;;;;;9.50;99.90;;;;;;5073800;28;19909;-79
2021/12/13 09:19:11;;;;;;;;;;;9.50;99.90;;;;;;5076037;28;19931;-79
2021/12/13 09:21:51;;;;;;;;;;;9.60;99.90;;;;;;5076128;28;19908;-79
2021/12/13 09:24:28;;;;;;;;;;;9.40;99.90;;;;;;5076036;28;19908;-78
2021/12/13 09:26:57;;;;;;;;;;;9.60;99.90;;;;;;5076134;28;19912;-78
2021/12/13 09:29:24;;;;;;;;;;;9.60;99.90;;;;;;5057976;28;19909;-79
2021/12/13 09:31:51;;;;;;;;;;;9.60;99.90;;;;;;5075873;28;20334;-78
2021/12/13 09:34:19;;;;;;;;;;;9.50;99.90;;;;;;5075839;28;19955;-79
2021/12/13 09:36:46;;;;;;;;;;;9.60;99.90;;;;;;5057802;28;19908;-80
2021/12/13 09:39:16;;;;;;;;;;;9.70;99.90;;;;;;5075738;28;20333;-79
2021/12/13 09:41:48;;;;;;;;;;;9.70;99.90;;;;;;5075995;28;19904;-78
2021/12/13 09:44:39;;;;;;;;;;;9.60;99.90;;;;;;5075865;28;19914;-78
2021/12/13 09:47:12;;;;;;;;;;;9.60;99.90;;;;;;5068270;28;19908;-78
2021/12/13 09:49:41;;;;;;;;;;;9.60;99.90;;;;;;5057548;28;19909;-79
2021/12/13 09:52:26;;;;;;;;;;;9.50;99.90;;;;;;5075546;28;19908;-78
2021/12/13 09:54:54;;;;;;;;;;;9.60;99.90;;;;;;5075312;28;19913;-79
2021/12/13 09:57:22;;;;;;;;;;;9.70;99.90;;;;;;5075328;28;19934;-78
2021/12/13 09:59:50;;;;;;;;;;;9.70;99.90;;;;;;5057222;28;19912;-78
2021/12/13 10:02:21;;;;;;;;;;;9.60;99.90;;;;;;5075222;28;19946;-79
2021/12/13 10:04:49;;;;;;;;;;;9.60;99.90;;;;;;5075475;28;19942;-80
2021/12/13 10:07:17;;;;;;;;;;;9.50;99.90;;;;;;5075313;28;19915;-78
2021/12/13 10:09:44;;;;;;;;;;;9.60;99.90;;;;;;5075200;28;19908;-78
2021/12/13 10:12:14;;;;;;;;;;;9.50;99.90;;;;;;5074900;28;19920;-79
2021/12/13 10:14:42;;;;;;;;;;;9.60;99.90;;;;;;5075029;28;19935;-79
2021/12/13 10:17:09;;;;;;;;;;;9.60;99.90;;;;;;5075228;28;19908;-78
2021/12/13 10:19:40;;;;;;;;;;;9.60;99.90;;;;;;5075180;28;19991;-79
2021/12/13 10:22:08;;;;;;;;;;;9.60;99.90;;;;;;5075035;28;19909;-79
2021/12/13 10:24:39;;;;;;;;;;;9.50;99.90;;;;;;5074453;28;19915;-79
2021/12/13 10:27:06;;;;;;;;;;;9.60;99.90;;;;;;5075177;28;19912;-79
2021/12/13 10:29:32;;;;;;;;;;;9.60;99.90;;;;;;5074954;28;20376;-78
2021/12/13 10:32:08;;;;;;;;;;;9.50;99.90;;;;;;5074956;28;19951;-79
2021/12/13 10:34:36;;;;;;;;;;;9.60;99.90;;;;;;5074651;28;20300;-78
2021/12/13 10:37:22;;;;;;;;;;;9.50;99.90;;;;;;5074647;28;19908;-79
2021/12/13 10:39:50;;;;;;;;;;;9.50;99.90;;;;;;5074772;28;20120;-79
2021/12/13 10:42:19;;;;;;;;;;;9.50;99.90;;;;;;5074484;28;19915;-78
2021/12/13 10:44:45;;;;;;;;;;;9.30;99.90;;;;;;5074319;28;20440;-79
2021/12/13 10:47:17;;;;;;;;;;;9.40;99.90;;;;;;5074659;28;19943;-80
2021/12/13 10:49:44;;;;;;;;;;;9.40;99.90;;;;;;5074380;28;19909;-79
2021/12/13 10:52:13;;;;;;;;;;;9.60;99.90;;;;;;5074248;28;19909;-79
2021/12/13 10:54:43;;;;;;;;;;;9.60;99.90;;;;;;5074048;28;19912;-78
2021/12/13 10:57:18;;;;;;;;;;;9.50;99.90;;;;;;5074500;28;20266;-79
2021/12/13 10:59:44;;;;;;;;;;;9.50;99.90;;;;;;5056284;28;20330;-78
2021/12/13 11:02:12;;;;;;;;;;;9.30;99.90;;;;;;5074187;28;19909;-79
2021/12/13 11:04:43;;;;;;;;;;;9.30;99.90;;;;;;5074074;28;19912;-78
2021/12/13 11:07:10;;;;;;;;;;;9.40;99.90;;;;;;5074435;28;19909;-79
2021/12/13 11:09:37;;;;;;;;;;;9.40;99.90;;;;;;5073947;28;20315;-79
2021/12/13 11:12:06;;;;;;;;;;;9.30;99.90;;;;;;5073910;28;19952;-79
2021/12/13 11:14:34;;;;;;;;;;;9.20;99.90;;;;;;5055977;28;19956;-78
2021/12/13 11:17:02;;;;;;;;;;;9.20;99.90;;;;;;5074538;28;19944;-79
2021/12/13 11:19:30;;;;;;;;;;;9.20;99.90;;;;;;5056187;28;19908;-79
2021/12/13 11:22:01;;;;;;;;;;;9.20;99.90;;;;;;5074297;28;19916;-78
2021/12/13 11:24:28;;;;;;;;;;;9.30;99.90;;;;;;5074243;28;19962;-78
2021/12/13 11:27:00;;;;;;;;;;;9.30;99.90;;;;;;5074170;28;19914;-79
2021/12/13 11:29:26;;;;;;;;;;;9.40;99.90;;;;;;5074318;28;19912;-79
2021/12/13 11:31:55;;;;;;;;;;;9.50;99.90;;;;;;5073739;28;20441;-79
2021/12/13 11:34:21;;;;;;;;;;;9.50;99.90;;;;;;5073034;28;20418;-79
2021/12/13 11:37:06;;;;;;;;;;;9.70;99.90;;;;;;5055666;28;19908;-79
2021/12/13 11:39:38;;;;;;;;;;;9.80;99.90;;;;;;5073689;28;19915;-77
2021/12/13 11:42:07;;;;;;;;;;;9.90;99.90;;;;;;5073721;28;19931;-79
2021/12/13 11:44:54;;;;;;;;;;;9.80;99.90;;;;;;5073613;28;19961;-79
2021/12/13 11:47:29;;;;;;;;;;;9.90;99.90;;;;;;5073824;28;19908;-79
2021/12/13 11:50:13;;;;;;;;;;;10.00;99.90;;;;;;5073580;28;19991;-79
2021/12/13 11:52:51;;;;;;;;;;;10.00;99.90;;;;;;5073571;28;19925;-78
2021/12/13 11:55:16;;;;;;;;;;;9.80;99.90;;;;;;5074004;28;19913;-79
2021/12/13 11:57:53;;;;;;;;;;;9.70;99.90;;;;;;5055641;28;19916;-80
2021/12/13 12:00:22;;;;;;;;;;;9.60;99.90;;;;;;5073656;28;19920;-79
2021/12/13 12:03:02;;;;;;;;;;;10.00;99.90;;;;;;5055425;28;19909;-78
2021/12/13 12:05:41;;;;;;;;;;;10.00;99.90;;;;;;5073607;28;20010;-79
2021/12/13 12:08:09;;;;;;;;;;;9.90;99.90;;;;;;5073635;28;19908;-78
2021/12/13 12:10:35;;;;;;;;;;;9.80;99.90;;;;;;5055324;28;19915;-79
2021/12/13 12:13:10;;;;;;;;;;;9.80;99.90;;;;;;5054895;28;19921;-79
2021/12/13 12:15:39;;;;;;;;;;;9.70;99.90;;;;;;5073498;28;19916;-78
2021/12/13 12:18:06;;;;;;;;;;;9.60;99.90;;;;;;5073353;28;20326;-79
2021/12/13 12:20:35;;;;;;;;;;;9.80;99.90;;;;;;5073398;28;20377;-78
2021/12/13 12:23:05;;;;;;;;;;;10.00;99.90;;;;;;5073346;28;19931;-79
2021/12/13 12:25:32;;;;;;;;;;;9.80;99.90;;;;;;5055172;28;19908;-78
2021/12/13 12:28:00;;;;;;;;;;;9.90;99.90;;;;;;5073227;28;19975;-78
2021/12/13 12:30:28;;;;;;;;;;;10.00;99.90;;;;;;5073322;28;19908;-79
2021/12/13 12:32:55;;;;;;;;;;;10.00;99.90;;;;;;5073132;28;20389;-78
2021/12/13 12:35:22;;;;;;;;;;;10.20;99.90;;;;;;5073053;28;19909;-80
2021/12/13 12:37:54;;;;;;;;;;;10.30;99.90;;;;;;5073014;28;20320;-79
2021/12/13 12:40:19;;;;;;;;;;;10.20;99.90;;;;;;5073134;28;19908;-79
2021/12/13 12:42:46;;;;;;;;;;;10.20;99.90;;;;;;5055169;28;19948;-79
2021/12/13 12:45:15;;;;;;;;;;;10.10;99.90;;;;;;5073497;28;19940;-78
2021/12/13 12:47:46;;;;;;;;;;;10.20;99.90;;;;;;5076452;28;20376;-78
2021/12/13 12:50:23;;;;;;;;;;;10.10;99.90;;;;;;5076815;28;19908;-79
2021/12/13 12:52:54;;;;;;;;;;;10.10;99.90;;;;;;5076612;28;19912;-79
2021/12/13 12:55:23;;;;;;;;;;;10.00;99.90;;;;;;5077104;28;19912;-78
2021/12/13 12:57:48;;;;;;;;;;;10.10;99.90;;;;;;5076534;28;20266;-79
2021/12/13 13:00:14;;;;;;;;;;;10.10;99.90;;;;;;5076419;28;19931;-80
2021/12/13 13:02:40;;;;;;;;;;;10.10;99.90;;;;;;5076338;28;20372;-79
2021/12/13 13:05:07;;;;;;;;;;;10.20;99.90;;;;;;5076361;28;19915;-78
2021/12/13 13:07:34;;;;;;;;;;;10.20;99.90;;;;;;5076342;28;20364;-80
2021/12/13 13:10:00;;;;;;;;;;;10.20;99.90;;;;;;5076302;28;19909;-79
2021/12/13 13:12:29;;;;;;;;;;;10.10;99.90;;;;;;5076298;28;19973;-79
2021/12/13 13:15:06;;;;;;;;;;;10.00;99.90;;;;;;5076232;28;20273;-80
2021/12/13 13:17:33;;;;;;;;;;;10.00;99.90;;;;;;5076407;28;19916;-80
2021/12/13 13:20:05;;;;;;;;;;;10.10;99.90;;;;;;5076057;28;19975;-81
2021/12/13 13:22:32;;;;;;;;;;;10.00;99.90;;;;;;5076209;28;19908;-79
2021/12/13 13:25:05;;;;;;;;;;;10.10;99.90;;;;;;5058039;28;19913;-79
2021/12/13 13:27:31;;;;;;;;;;;10.00;99.90;;;;;;5057730;28;19908;-79
2021/12/13 13:29:57;;;;;;;;;;;9.90;99.90;;;;;;5075939;28;19995;-79
2021/12/13 13:32:23;;;;;;;;;;;10.10;99.90;;;;;;5075885;28;19951;-80
2021/12/13 13:34:54;;;;;;;;;;;9.90;99.90;;;;;;5057774;28;19983;-79
2021/12/13 13:37:25;;;;;;;;;;;10.20;99.90;;;;;;5075760;28;19909;-78
2021/12/13 13:39:55;;;;;;;;;;;10.10;99.90;;;;;;5075598;28;20000;-79
2021/12/13 13:42:31;;;;;;;;;;;10.20;99.90;;;;;;5075960;28;19908;-80
2021/12/13 13:44:57;;;;;;;;;;;10.20;99.90;;;;;;5057350;28;20438;-79
2021/12/13 13:47:28;;;;;;;;;;;10.30;99.90;;;;;;5075545;28;19908;-80
2021/12/13 13:49:54;;;;;;;;;;;10.20;99.90;;;;;;5057491;28;20360;-79
2021/12/13 13:52:24;;;;;;;;;;;10.10;99.90;;;;;;5075474;28;19908;-78
2021/12/13 13:54:54;;;;;;;;;;;10.10;99.90;;;;;;5075553;28;19986;-78
2021/12/13 13:57:21;;;;;;;;;;;10.00;99.90;;;;;;5074685;28;19909;-80
2021/12/13 13:59:48;;;;;;;;;;;9.90;99.90;;;;;;5057280;28;19934;-79
2021/12/13 14:02:19;;;;;;;;;;;9.90;99.90;;;;;;5075269;28;20003;-80
2021/12/13 14:04:50;;;;;;;;;;;9.90;99.90;;;;;;5075392;28;20299;-78
2021/12/13 14:07:21;;;;;;;;;;;10.20;99.90;;;;;;5075264;28;20391;-80
2021/12/13 14:09:58;;;;;;;;;;;10.40;99.90;;;;;;5075195;28;19915;-79
2021/12/13 14:12:25;;;;;;;;;;;10.40;99.90;;;;;;5075195;28;19921;-79
2021/12/13 14:14:53;;;;;;;;;;;10.30;99.90;;;;;;5074847;28;19913;-79
2021/12/13 14:17:33;;;;;;;;;;;10.20;99.90;;;;;;5074650;28;19913;-78
2021/12/13 14:20:02;;;;;;;;;;;10.20;99.90;;;;;;5074862;28;19913;-80
2021/12/13 14:22:30;;;;;;;;;;;10.30;99.90;;;;;;5075070;28;19912;-80
2021/12/13 14:24:56;;;;;;;;;;;10.30;99.90;;;;;;5074917;28;19930;-80
2021/12/13 14:27:26;;;;;;;;;;;10.30;99.90;;;;;;5074821;28;19908;-79
2021/12/13 14:30:07;;;;;;;;;;;10.20;99.90;;;;;;5074762;28;20357;-79
2021/12/13 14:32:33;;;;;;;;;;;10.20;99.90;;;;;;5074852;28;19909;-80
2021/12/13 14:35:10;;;;;;;;;;;10.20;99.90;;;;;;5074797;28;19916;-79
2021/12/13 14:37:35;;;;;;;;;;;10.20;99.90;;;;;;5074666;28;19958;-80
2021/12/13 14:40:01;;;;;;;;;;;10.00;99.90;;;;;;5074462;28;19909;-79
2021/12/13 14:42:27;;;;;;;;;;;10.20;99.90;;;;;;5056448;28;19931;-80
2021/12/13 14:44:54;;;;;;;;;;;10.10;99.90;;;;;;5074401;28;19991;-79